Time;durP1;ratioP1;P1;durP2;ratioP2;P2;SDS_P1;SDS_P2;PMS_P1;PMS_P2;Temp;Humidity;BMP_temperature;BMP_pressure;BME280_temperature;BME280_humidity;BME280_pressure;Samples;Min_cycle;Max_cycle;Signal;HPM_P1;HPM_P2
2021/07/27 00:08:04;;;;;;;7.13;5.75;;;17.70;99.90;;;18.87;96.49;100112.97;6222686;23;20043;-88
2021/07/27 00:12:04;;;;;;;;;;;;;;;;;;;;;
2021/07/27 00:15:09;;;;;;;9.02;5.60;;;17.60;99.90;;;18.85;96.84;100114.59;6150908;23;20033;-89
2021/07/27 00:17:34;;;;;;;8.00;5.28;;;17.60;99.90;;;18.81;97.27;100108.22;6173619;23;20036;-90
2021/07/27 00:20:04;;;;;;;7.38;5.88;;;17.60;99.90;;;18.74;97.89;100113.97;6164668;23;20020;-88
2021/07/27 00:22:30;;;;;;;9.38;6.18;;;17.60;99.90;;;18.69;98.18;100117.28;6164331;23;20028;-89
2021/07/27 00:24:58;;;;;;;7.40;5.95;;;17.60;99.90;;;18.71;98.46;100117.66;6190383;23;20100;-88
2021/07/27 00:27:24;;;;;;;7.57;6.38;;;17.50;99.90;;;18.64;98.81;100120.59;6165541;23;20077;-89
2021/07/27 00:29:50;;;;;;;6.72;5.28;;;17.50;99.90;;;18.68;98.42;100115.69;6174313;23;20017;-88
2021/07/27 00:32:17;;;;;;;10.50;6.78;;;17.50;99.90;;;18.64;98.80;100121.41;6176087;23;20009;-90
2021/07/27 00:34:43;;;;;;;10.18;6.28;;;17.50;99.90;;;18.64;98.96;100112.91;6176576;23;20017;-88
2021/07/27 00:37:16;;;;;;;7.68;6.13;;;17.40;99.90;;;18.63;98.92;100107.66;6177192;23;20013;-89
2021/07/27 00:39:43;;;;;;;9.80;6.90;;;17.50;99.90;;;18.61;99.05;100110.94;6177006;23;20009;-90
2021/07/27 00:42:14;;;;;;;11.40;6.88;;;17.40;99.90;;;18.69;98.57;100115.25;6169890;23;20019;-88
2021/07/27 00:44:41;;;;;;;8.07;6.28;;;17.40;99.90;;;18.59;99.18;100121.84;6159375;23;20009;-88
2021/07/27 00:47:07;;;;;;;7.47;6.15;;;17.50;99.90;;;18.71;98.62;100117.66;6160024;23;20077;-89
2021/07/27 00:49:34;;;;;;;7.60;5.78;;;17.50;99.90;;;18.69;98.67;100117.28;6159881;23;20076;-88
2021/07/27 00:52:13;;;;;;;;;;;;;;;;;;;;;
2021/07/27 00:54:47;;;;;;;8.80;5.85;;;17.50;99.90;;;18.66;98.51;100124.59;6185719;23;20060;-88
2021/07/27 00:57:13;;;;;;;8.82;6.60;;;17.50;99.90;;;18.65;98.23;100123.00;6159429;23;20005;-87
2021/07/27 00:59:39;;;;;;;9.23;6.25;;;17.50;99.90;;;18.63;98.31;100122.59;6184311;23;20450;-89
2021/07/27 01:02:06;;;;;;;8.85;6.88;;;17.40;99.90;;;18.59;98.92;100121.06;6159108;23;20016;-89
2021/07/27 01:04:32;;;;;;;7.97;6.35;;;17.40;99.90;;;18.56;99.34;100113.44;6159219;23;20410;-87
2021/07/27 01:07:10;;;;;;;8.73;6.70;;;17.40;99.90;;;18.66;98.81;100123.78;6158952;23;20012;-88
2021/07/27 01:09:37;;;;;;;8.52;5.65;;;17.40;99.90;;;18.61;98.64;100121.44;6184086;23;20009;-88
2021/07/27 01:12:03;;;;;;;8.07;5.95;;;17.40;99.90;;;18.57;99.14;100120.69;6135028;23;20020;-91
2021/07/27 01:14:38;;;;;;;8.02;6.00;;;17.40;99.90;;;18.55;99.19;100131.63;6159146;23;20012;-90
2021/07/27 01:17:07;;;;;;;8.52;6.32;;;17.40;99.90;;;18.56;98.74;100128.34;6159925;23;20159;-89
2021/07/27 01:19:54;;;;;;;9.05;6.57;;;17.40;99.90;;;18.53;99.29;100117.91;6159982;23;20036;-90
2021/07/27 01:43:51;;;;;;;14.73;8.18;;;17.20;99.90;;;18.55;100.00;100120.31;6197836;23;20055;-86
2021/07/27 01:46:23;;;;;;;10.27;7.70;;;17.30;99.90;;;18.68;100.00;100122.16;6161573;23;20009;-88
2021/07/27 01:48:50;;;;;;;10.73;7.60;;;17.30;99.90;;;18.73;100.00;100118.03;6161450;23;20455;-90
2021/07/27 01:51:19;;;;;;;13.52;7.90;;;17.40;99.90;;;18.76;100.00;100131.31;6161862;23;20060;-89
2021/07/27 01:53:48;;;;;;;10.70;8.18;;;17.40;99.90;;;18.75;100.00;100133.34;6187402;23;20009;-89
2021/07/27 01:56:17;;;;;;;13.95;8.70;;;17.40;99.90;;;18.77;100.00;100130.09;6162227;23;20017;-89
2021/07/27 01:58:47;;;;;;;13.73;8.82;;;17.40;99.90;;;18.78;100.00;100124.00;6162720;23;20009;-88
2021/07/27 02:01:13;;;;;;;11.82;9.20;;;17.50;99.90;;;18.75;100.00;100119.19;6163010;23;20088;-88
2021/07/27 02:03:39;;;;;;;13.85;9.27;;;17.50;99.90;;;18.77;100.00;100128.06;6162819;23;20016;-87
2021/07/27 02:06:05;;;;;;;14.00;9.73;;;17.50;99.90;;;18.79;100.00;100119.16;6162813;23;20009;-89
2021/07/27 02:08:32;;;;;;;13.00;9.45;;;17.50;99.90;;;18.78;100.00;100118.34;6190219;23;20005;-88
2021/07/27 02:11:06;;;;;;;13.90;10.32;;;17.50;99.90;;;18.67;100.00;100123.38;6188708;23;20016;-89
2021/07/27 02:13:45;;;;;;;13.50;10.00;;;17.50;99.90;;;18.72;100.00;100120.06;6163879;23;20005;-86
2021/07/27 02:16:11;;;;;;;13.30;9.38;;;17.40;99.90;;;18.59;100.00;100113.38;6188352;23;20036;-88
2021/07/27 02:18:39;;;;;;;13.73;10.15;;;17.40;99.90;;;18.57;100.00;100115.81;6164725;23;20001;-87
2021/07/27 02:21:05;;;;;;;13.70;10.23;;;17.20;99.90;;;18.52;100.00;100118.34;6189503;23;20457;-86
2021/07/27 02:23:31;;;;;;;17.50;11.50;;;17.20;99.90;;;18.39;100.00;100113.22;6200154;23;20001;-87
2021/07/27 02:25:58;;;;;;;16.52;11.38;;;17.10;99.90;;;18.46;100.00;100114.34;6199243;23;20024;-89
2021/07/27 02:28:24;;;;;;;15.13;10.95;;;17.20;99.90;;;18.45;100.00;100116.38;6186918;23;20012;-89
2021/07/27 02:30:58;;;;;;;15.60;11.50;;;17.10;99.90;;;18.37;100.00;100115.66;6186918;23;20009;-88
2021/07/27 02:33:24;;;;;;;18.05;12.02;;;17.10;99.90;;;18.36;100.00;100127.41;6161827;23;20058;-91
2021/07/27 02:35:52;;;;;;;15.68;10.73;;;17.20;99.90;;;18.36;100.00;100119.72;6186290;23;20029;-91
2021/07/27 02:38:18;;;;;;;18.45;12.23;;;17.10;99.90;;;18.40;100.00;100126.13;6162908;23;20028;-88
2021/07/27 02:40:45;;;;;;;17.60;12.93;;;17.10;99.90;;;18.43;100.00;100124.47;6187045;23;20096;-89
2021/07/27 02:43:11;;;;;;;19.02;13.93;;;17.10;99.90;;;18.42;100.00;100122.88;6187873;23;20008;-87
2021/07/27 02:45:38;;;;;;;18.58;12.98;;;17.10;99.90;;;18.50;100.00;100118.75;6187743;23;20424;-91
2021/07/27 02:48:06;;;;;;;17.92;12.90;;;17.10;99.90;;;18.52;100.00;100119.16;6188802;23;20059;-91
2021/07/27 02:50:35;;;;;;;21.77;15.10;;;17.10;99.90;;;18.49;100.00;100124.81;6188462;23;20036;-88
2021/07/27 02:53:01;;;;;;;23.60;15.63;;;17.10;99.90;;;18.50;100.00;100118.75;6189550;23;20009;-91
2021/07/27 02:55:27;;;;;;;19.80;14.05;;;17.10;99.90;;;18.51;100.00;100119.56;6164412;23;20001;-90
2021/07/27 02:57:53;;;;;;;25.02;14.60;;;17.10;99.90;;;18.46;100.00;100123.66;6190730;23;20020;-90
2021/07/27 03:00:20;;;;;;;25.83;17.35;;;17.10;99.90;;;18.43;100.00;100128.09;6167408;23;20439;-91
2021/07/27 03:02:46;;;;;;;26.08;16.20;;;17.00;99.90;;;18.38;100.00;100122.13;6166986;23;20064;-88
2021/07/27 03:05:16;;;;;;;23.58;17.38;;;17.00;99.90;;;18.33;100.00;100125.44;6161511;23;20013;-90
2021/07/27 03:10:22;;;;;;;20.45;14.52;;;16.90;99.90;;;18.28;100.00;100115.38;6188254;23;20009;-89
2021/07/27 03:12:56;;;;;;;28.10;17.60;;;16.90;99.90;;;18.24;100.00;100119.47;6186033;23;20100;-89
2021/07/27 03:15:30;;;;;;;23.88;16.98;;;16.90;99.90;;;18.19;100.00;100122.75;6161130;23;20013;-89
2021/07/27 03:18:00;;;;;;;23.00;16.33;;;16.80;99.90;;;18.16;100.00;100121.59;6186086;23;20013;-87
2021/07/27 03:20:29;;;;;;;25.48;17.92;;;16.80;99.90;;;18.15;100.00;100122.81;6161076;23;20016;-89
2021/07/27 03:22:56;;;;;;;25.42;17.63;;;16.90;99.90;;;18.07;100.00;100126.97;6161564;23;20036;-91
2021/07/27 03:25:23;;;;;;;25.10;16.98;;;16.90;99.90;;;18.08;100.00;100128.53;6160535;23;20423;-90
2021/07/27 03:27:52;;;;;;;24.15;17.85;;;16.80;99.90;;;18.03;100.00;100131.03;6159657;23;20384;-89
2021/07/27 03:30:22;;;;;;;25.35;17.30;;;16.80;99.90;;;17.97;100.00;100135.53;6184905;23;20013;-90
2021/07/27 03:32:50;;;;;;;24.33;17.70;;;16.80;99.90;;;17.98;100.00;100134.34;6160353;23;20001;-90
2021/07/27 03:35:18;;;;;;;29.77;20.10;;;16.80;99.90;;;17.90;100.00;100123.09;6160121;23;20009;-90
2021/07/27 03:37:45;;;;;;;31.13;20.30;;;16.70;99.90;;;17.98;100.00;100126.63;6185123;23;20012;-90
2021/07/27 03:40:12;;;;;;;33.03;20.38;;;16.80;99.90;;;18.04;100.00;100119.31;6184480;23;20071;-91
2021/07/27 03:42:39;;;;;;;29.42;20.52;;;16.80;99.90;;;18.02;100.00;100123.75;6184622;23;20019;-91
2021/07/27 03:45:06;;;;;;;31.23;20.25;;;16.80;99.90;;;18.00;100.00;100132.69;6160119;23;20016;-90
2021/07/27 03:47:32;;;;;;;29.17;21.42;;;16.70;99.90;;;18.01;100.00;100130.66;6159246;23;20024;-89
2021/07/27 03:49:58;;;;;;;32.30;21.70;;;16.80;99.90;;;18.01;100.00;100128.66;6184866;23;20104;-90
2021/07/27 03:52:24;;;;;;;29.23;19.45;;;16.70;99.90;;;18.02;100.00;100124.56;6185037;23;20005;-89
2021/07/27 03:54:51;;;;;;;30.35;19.75;;;16.70;99.90;;;18.02;100.00;100132.25;6185658;23;20408;-91
2021/07/27 03:57:17;;;;;;;30.88;20.88;;;16.70;99.90;;;17.94;100.00;100120.25;6184987;23;20370;-90
2021/07/27 03:59:43;;;;;;;30.02;20.85;;;16.70;99.90;;;17.88;100.00;100124.75;6161335;23;19993;-93
2021/07/27 04:02:09;;;;;;;34.80;21.65;;;16.70;99.90;;;17.86;100.00;100138.47;6159793;23;20044;-90
2021/07/27 04:04:39;;;;;;;36.28;22.90;;;16.70;99.90;;;18.04;100.00;100127.81;6185104;23;20005;-91
2021/07/27 04:07:05;;;;;;;28.52;21.10;;;16.70;99.90;;;18.05;100.00;100129.38;6160824;23;20063;-91
2021/07/27 04:09:31;;;;;;;33.17;22.15;;;16.70;99.90;;;17.97;100.00;100132.72;6186924;23;20071;-91
2021/07/27 04:11:57;;;;;;;34.45;22.67;;;16.80;99.90;;;18.03;100.00;100136.69;6185113;23;20005;-89
2021/07/27 04:14:23;;;;;;;34.28;23.05;;;16.80;99.90;;;18.08;100.00;100133.38;6185558;23;20009;-90
2021/07/27 04:16:49;;;;;;;31.40;22.02;;;16.70;99.90;;;18.11;100.00;100130.53;6185759;23;20009;-91
2021/07/27 04:19:15;;;;;;;31.33;21.23;;;16.70;99.90;;;18.14;100.00;100138.16;6185518;23;20043;-89
2021/07/27 04:21:45;;;;;;;35.10;22.75;;;16.80;99.90;;;18.11;100.00;100133.34;6160279;23;20009;-89
2021/07/27 04:24:11;;;;;;;38.60;24.67;;;16.80;99.90;;;18.08;100.00;100142.66;6185727;23;20091;-90
2021/07/27 04:26:37;;;;;;;39.05;24.40;;;16.80;99.90;;;18.13;100.00;100149.91;6160457;23;20039;-88
2021/07/27 04:29:02;;;;;;;36.95;24.77;;;16.80;99.90;;;18.22;100.00;100144.53;6160774;23;20087;-89
2021/07/27 04:31:30;;;;;;;36.50;24.35;;;16.80;99.90;;;18.22;100.00;100145.34;6161258;23;20072;-87
2021/07/27 04:33:56;;;;;;;33.65;24.10;;;16.90;99.90;;;18.32;100.00;100158.53;6186065;23;19998;-88
2021/07/27 04:36:27;;;;;;;34.80;24.63;;;16.90;99.90;;;18.22;100.00;100151.00;6185184;23;20035;-87
2021/07/27 04:38:57;;;;;;;38.30;24.55;;;16.90;99.90;;;18.26;100.00;100156.59;6196313;23;20009;-87
2021/07/27 04:41:22;;;;;;;44.97;27.85;;;17.00;99.90;;;18.26;100.00;100160.25;6207062;23;20015;-88
2021/07/27 04:43:48;;;;;;;38.17;25.33;;;17.00;99.90;;;18.35;100.00;100146.38;6188387;23;20048;-89
2021/07/27 04:46:17;;;;;;;37.45;25.70;;;17.10;99.90;;;18.38;100.00;100150.38;6160577;23;20437;-91
2021/07/27 04:48:43;;;;;;;38.15;26.17;;;17.10;99.90;;;18.41;100.00;100153.19;6161200;23;20161;-88
2021/07/27 04:51:09;;;;;;;41.97;26.55;;;17.10;99.90;;;18.44;100.00;100157.19;6186301;23;20108;-89
2021/07/27 04:53:36;;;;;;;38.38;25.45;;;17.20;99.90;;;18.59;100.00;100149.34;6186220;23;20012;-89
2021/07/27 04:56:03;;;;;;;39.20;25.70;;;17.20;99.90;;;18.62;100.00;100143.63;6186261;23;20001;-89
2021/07/27 04:58:29;;;;;;;44.03;28.25;;;17.20;99.90;;;18.71;100.00;100148.78;6185904;23;20648;-89
2021/07/27 05:01:02;;;;;;;37.60;26.40;;;17.40;99.90;;;18.85;100.00;100149.38;6160996;23;20039;-90
2021/07/27 05:06:07;;;;;;;37.72;26.42;;;17.50;99.90;;;18.98;100.00;100149.59;6190905;23;20017;-88
2021/07/27 05:08:34;;;;;;;42.13;28.33;;;17.60;99.90;;;18.98;100.00;100149.59;6164173;23;20009;-88
2021/07/27 05:11:03;;;;;;;41.35;27.15;;;17.70;99.90;;;19.07;99.95;100154.72;6162865;23;20051;-87
2021/07/27 05:13:29;;;;;;;39.35;26.65;;;17.70;99.90;;;19.21;99.52;100149.63;6162719;23;20064;-88
2021/07/27 05:15:59;;;;;;;40.58;27.23;;;17.80;99.90;;;19.28;99.30;100154.38;6162760;23;20036;-89
2021/07/27 05:18:24;;;;;;;43.60;28.83;;;17.90;99.90;;;19.36;98.47;100153.03;6162920;23;20096;-88
2021/07/27 05:20:50;;;;;;;40.35;26.30;;;18.00;99.90;;;19.43;97.67;100156.56;6162313;23;20394;-89
2021/07/27 05:23:16;;;;;;;42.42;26.50;;;18.10;99.90;;;19.47;97.47;100159.34;6163186;23;20435;-87
2021/07/27 05:25:42;;;;;;;38.67;27.40;;;18.20;99.90;;;19.56;96.66;100156.75;6162778;23;20013;-88
2021/07/27 05:28:09;;;;;;;39.08;27.35;;;18.30;99.90;;;19.67;96.02;100162.25;6162079;23;20005;-88
2021/07/27 05:30:36;;;;;;;38.35;25.30;;;18.40;99.90;;;19.85;95.03;100155.03;6188697;23;20009;-91
2021/07/27 05:33:05;;;;;;;38.83;26.92;;;18.40;99.90;;;19.77;95.15;100164.91;6161868;23;20454;-89
2021/07/27 05:35:32;;;;;;;35.08;23.77;;;18.50;99.90;;;19.91;94.56;100166.66;6162194;23;20021;-89
2021/07/27 05:37:59;;;;;;;36.35;24.83;;;18.50;99.90;;;19.88;94.04;100161.84;6163631;23;20162;-88
2021/07/27 05:40:30;;;;;;;35.13;23.77;;;18.60;99.90;;;19.98;93.63;100156.00;6163300;23;20332;-88
2021/07/27 05:42:57;;;;;;;35.28;24.17;;;18.70;99.90;;;20.17;92.83;100164.94;6162896;23;20044;-88
2021/07/27 05:45:24;;;;;;;34.17;24.80;;;18.80;99.90;;;20.21;92.51;100162.84;6163478;23;20020;-89
2021/07/27 05:47:51;;;;;;;35.58;25.33;;;18.70;99.90;;;20.19;92.02;100163.28;6164484;23;20009;-89
2021/07/27 05:50:18;;;;;;;37.78;24.60;;;18.80;99.90;;;20.30;91.91;100163.91;6164501;23;20013;-88
2021/07/27 05:52:44;;;;;;;34.45;25.25;;;18.80;99.90;;;20.48;90.61;100170.00;6162594;23;20481;-89
2021/07/27 05:55:11;;;;;;;34.33;24.80;;;19.00;99.90;;;20.54;89.64;100169.50;6163237;23;20005;-88
2021/07/27 05:57:37;;;;;;;33.60;24.95;;;19.10;99.90;;;20.59;89.45;100180.31;6162948;23;20073;-89
2021/07/27 06:00:05;;;;;;;34.47;25.88;;;19.20;99.90;;;20.52;89.57;100174.81;6190025;23;20016;-88
2021/07/27 06:02:32;;;;;;;37.20;26.73;;;19.10;99.90;;;20.19;89.86;100171.81;6189989;23;20013;-86
2021/07/27 06:04:59;;;;;;;39.50;29.27;;;19.00;99.90;;;19.76;90.67;100156.81;6122294;23;20416;-87
2021/07/27 06:07:29;;;;;;;40.95;27.55;;;18.80;99.90;;;19.63;91.70;100172.84;6162483;23;20435;-87
2021/07/27 06:09:55;;;;;;;39.72;27.77;;;18.70;99.90;;;19.90;90.58;100167.91;6154342;23;20012;-87
2021/07/27 06:12:20;;;;;;;35.20;25.92;;;18.80;99.90;;;20.35;89.13;100171.09;6149372;23;20013;-87
2021/07/27 06:14:47;;;;;;;34.88;26.10;;;19.00;99.90;;;20.88;87.00;100167.91;6136391;23;20009;-87
2021/07/27 06:17:14;;;;;;;33.55;24.35;;;19.30;99.90;;;21.18;84.51;100174.56;6137502;23;20006;-86
2021/07/27 06:19:50;;;;;;;32.72;24.40;;;19.60;99.90;;;21.40;84.84;100167.94;6141875;23;20009;-86
2021/07/27 06:22:19;;;;;;;29.52;21.98;;;19.90;99.90;;;21.67;83.34;100173.34;6138395;23;20060;-86
2021/07/27 06:24:45;;;;;;;33.75;23.38;;;20.10;99.90;;;21.69;82.69;100173.69;6139954;23;20039;-88
2021/07/27 06:27:11;;;;;;;31.17;22.52;;;20.30;99.90;;;21.75;81.44;100171.13;6153848;23;20013;-87
2021/07/27 06:29:37;;;;;;;31.52;22.67;;;20.40;99.90;;;21.59;81.31;100174.78;6170393;23;20316;-87
2021/07/27 06:32:04;;;;;;;27.75;20.10;;;20.40;99.90;;;21.87;80.63;100174.03;6134600;23;20048;-88
2021/07/27 06:34:30;;;;;;;26.73;21.00;;;20.50;99.90;;;22.14;78.01;100170.91;6136459;23;20006;-88
2021/07/27 06:36:57;;;;;;;23.45;18.42;;;20.70;99.90;;;22.07;78.62;100173.94;6135874;23;20332;-87
2021/07/27 06:39:23;;;;;;;22.83;16.60;;;20.80;99.90;;;22.39;78.59;100165.31;6136374;23;20037;-89
2021/07/27 06:41:54;;;;;;;24.52;17.38;;;21.10;99.90;;;22.76;76.58;100163.84;6138304;23;20009;-89
2021/07/27 06:44:20;;;;;;;19.65;15.63;;;21.30;99.90;;;23.00;74.13;100162.25;6140776;23;20351;-89
2021/07/27 06:46:45;;;;;;;22.05;15.25;;;21.50;99.90;;;23.01;74.00;100160.22;6139060;23;20013;-89
2021/07/27 06:49:15;;;;;;;22.92;15.38;;;21.60;99.90;;;23.24;71.86;100161.94;6142228;23;20013;-91
2021/07/27 06:51:42;;;;;;;19.00;13.55;;;21.70;99.90;;;23.26;73.21;100160.22;6138043;23;20009;-89
2021/07/27 06:54:11;;;;;;;20.63;14.13;;;21.80;99.90;;;23.16;74.14;100169.91;6138819;23;20010;-88
2021/07/27 06:56:37;;;;;;;19.38;14.48;;;21.80;99.90;;;23.17;74.13;100177.19;6165599;23;20006;-88
2021/07/27 06:59:04;;;;;;;16.80;13.15;;;21.90;99.90;;;23.56;71.08;100173.09;6145469;23;20096;-89
2021/07/27 07:01:29;;;;;;;21.02;13.45;;;22.10;99.90;;;23.38;72.76;100170.00;6144078;23;20069;-87
2021/07/27 07:03:55;;;;;;;17.33;13.43;;;22.10;99.90;;;23.74;69.85;100175.34;6145029;23;20147;-88
2021/07/27 07:06:21;;;;;;;16.73;12.95;;;22.30;99.90;;;23.40;70.75;100170.38;6193202;23;20009;-89
2021/07/27 07:08:49;;;;;;;16.95;11.73;;;22.20;99.90;;;23.32;71.47;100174.69;6193656;23;20025;-88
2021/07/27 07:11:15;;;;;;;16.05;11.63;;;22.20;99.90;;;23.42;70.91;100162.16;6167139;23;20012;-90
2021/07/27 07:13:43;;;;;;;13.18;9.98;;;22.30;99.90;;;23.64;69.44;100174.44;6191692;23;20084;-92
2021/07/27 07:16:12;;;;;;;18.65;11.40;;;22.30;99.90;;;23.50;69.17;100161.47;6196507;23;20053;-88
2021/07/27 07:18:38;;;;;;;13.43;9.93;;;22.30;99.90;;;22.96;70.94;100166.47;6170885;23;20005;-90
2021/07/27 07:21:07;;;;;;;14.00;10.05;;;22.10;99.90;;;23.34;70.68;100167.25;6196325;23;20092;-88
2021/07/27 07:23:34;;;;;;;14.05;10.05;;;22.10;99.90;;;23.24;70.20;100161.94;6168336;23;20036;-90
2021/07/27 07:26:05;;;;;;;14.07;10.50;;;22.10;99.90;;;23.60;69.30;100168.06;6193472;23;20335;-88
2021/07/27 07:28:33;;;;;;;12.82;10.07;;;22.20;99.90;;;23.34;70.14;100158.72;6168947;23;20513;-89
2021/07/27 07:30:59;;;;;;;14.07;10.40;;;22.20;99.90;;;23.32;69.92;100175.47;6192320;23;20307;-90
2021/07/27 07:33:25;;;;;;;12.63;9.75;;;22.10;99.90;;;22.68;71.75;100167.34;6164932;23;20197;-90
2021/07/27 07:35:51;;;;;;;12.98;9.63;;;21.80;99.90;;;22.49;73.67;100169.88;6166659;23;20060;-89
2021/07/27 07:38:17;;;;;;;14.95;10.50;;;21.60;99.90;;;22.61;71.70;100165.47;6166584;23;20432;-89
2021/07/27 07:40:46;;;;;;;13.18;9.30;;;21.50;99.90;;;23.00;72.73;100173.66;6164100;23;20032;-88
2021/07/27 07:43:12;;;;;;;11.38;8.85;;;21.70;99.90;;;23.55;70.45;100168.66;6163463;23;20020;-89
2021/07/27 07:45:38;;;;;;;14.02;9.15;;;21.90;99.90;;;23.46;70.13;100177.09;6165896;23;20012;-90
2021/07/27 07:48:05;;;;;;;13.73;9.63;;;22.10;99.90;;;23.50;69.29;100163.53;6166849;23;20009;-86
2021/07/27 07:50:31;;;;;;;11.10;7.95;;;22.30;99.90;;;24.31;67.62;100160.69;6164556;23;20380;-86
2021/07/27 07:53:03;;;;;;;12.25;8.77;;;22.60;99.90;;;24.61;65.96;100168.53;6164799;23;20005;-88
2021/07/27 07:55:30;;;;;;;11.52;8.15;;;22.90;99.90;;;24.60;65.84;100157.56;6164297;23;20004;-87
2021/07/27 07:57:57;;;;;;;14.43;8.82;;;23.10;99.90;;;24.69;66.16;100156.84;6189751;23;20005;-87
2021/07/27 08:00:24;;;;;;;16.52;9.57;;;23.30;99.90;;;24.41;65.59;100156.63;6163124;23;20159;-87
2021/07/27 08:02:52;;;;;;;10.95;7.90;;;23.30;99.90;;;25.23;63.43;100156.34;6162814;23;20015;-90
2021/07/27 08:05:20;;;;;;;11.77;8.18;;;23.70;99.90;;;25.95;61.02;100175.78;6190491;23;20029;-88
2021/07/27 08:07:46;;;;;;;11.43;8.50;;;24.20;99.90;;;25.39;60.15;100173.22;6163119;23;20009;-88
2021/07/27 08:10:14;;;;;;;13.35;9.18;;;23.90;99.90;;;24.87;61.33;100166.34;6166198;23;20107;-87
2021/07/27 08:12:43;;;;;;;10.82;8.52;;;23.60;99.90;;;24.67;62.70;100163.81;6163418;23;20316;-88
2021/07/27 08:15:09;;;;;;;14.60;9.05;;;23.20;99.90;;;24.45;63.74;100160.16;6163368;23;20005;-88
2021/07/27 08:17:35;;;;;;;11.13;7.97;;;23.00;99.90;;;24.71;63.78;100163.66;6188167;23;20019;-88
2021/07/27 08:20:02;;;;;;;11.27;8.70;;;23.00;99.90;;;24.54;63.58;100168.78;6163436;23;20037;-89
2021/07/27 08:22:29;;;;;;;10.40;8.50;;;22.90;99.90;;;24.57;62.67;100167.06;6163326;23;20463;-89
2021/07/27 08:24:54;;;;;;;11.30;8.85;;;23.00;99.90;;;24.88;61.92;100170.00;6166313;23;20139;-90
2021/07/27 08:27:20;;;;;;;12.75;9.27;;;23.10;99.90;;;24.67;63.39;100171.56;6162995;23;20101;-88
2021/07/27 08:29:46;;;;;;;10.48;8.40;;;23.10;99.90;;;24.79;63.13;100169.91;6187175;23;20053;-88
2021/07/27 08:32:12;;;;;;;11.65;8.75;;;23.00;99.90;;;24.75;63.37;100177.81;6162641;23;20005;-86
2021/07/27 08:34:46;;;;;;;11.32;8.38;;;23.00;99.90;;;24.76;63.76;100174.47;6188889;23;20001;-89
2021/07/27 08:37:12;;;;;;;14.77;8.52;;;23.20;99.90;;;24.89;62.13;100171.56;6191755;23;20012;-89
2021/07/27 08:39:38;;;;;;;11.25;7.35;;;23.30;99.90;;;25.16;62.81;100168.84;6165039;23;20023;-88
2021/07/27 08:42:06;;;;;;;11.20;7.78;;;23.50;99.90;;;25.20;62.34;100168.72;6164800;23;20104;-87
2021/07/27 08:44:36;;;;;;;16.63;7.93;;;23.50;99.90;;;25.26;60.23;100166.84;6167737;23;20012;-89
2021/07/27 08:47:06;;;;;;;13.20;7.90;;;23.60;99.90;;;25.23;60.40;100160.00;6170913;23;20044;-88
2021/07/27 08:49:34;;;;;;;9.57;7.72;;;23.60;99.90;;;25.36;60.17;100154.97;6211645;22;20141;-88
2021/07/27 08:52:02;;;;;;;10.05;8.15;;;23.70;99.90;;;24.86;60.91;100169.63;6204837;23;20024;-89
2021/07/27 08:54:29;;;;;;;13.05;8.10;;;23.60;99.90;;;24.89;59.77;100163.78;6167990;23;20427;-90
2021/07/27 08:56:55;;;;;;;11.32;7.63;;;23.70;99.90;;;24.84;62.30;100164.41;6189536;23;20009;-89
2021/07/27 08:59:23;;;;;;;11.68;8.48;;;23.60;99.90;;;24.77;61.07;100167.50;6189980;23;20121;-89
2021/07/27 09:01:53;;;;;;;9.23;7.25;;;23.60;99.90;;;24.54;62.26;100163.06;6166518;23;20019;-91
2021/07/27 09:04:31;;;;;;;12.07;7.47;;;23.40;99.90;;;25.38;60.94;100168.78;6156968;23;20017;-87
2021/07/27 09:07:06;;;;;;;16.20;8.68;;;23.80;99.90;;;26.05;57.73;100163.88;6166872;23;20005;-88
2021/07/27 09:09:41;;;;;;;;;;;24.40;99.90;;;26.38;55.82;100169.00;6137851;23;20010;-90
2021/07/27 09:12:09;;;;;;;10.70;7.88;;;24.80;99.90;;;26.99;55.26;100164.94;6138933;23;19904;-87
2021/07/27 09:14:43;;;;;;;13.30;8.52;;;25.20;99.90;;;26.18;56.43;100164.53;6136455;23;20037;-88
2021/07/27 09:17:13;;;;;;;13.88;7.97;;;25.00;99.90;;;26.69;54.47;100158.13;6137765;23;20084;-88
2021/07/27 09:19:42;;;;;;;9.60;7.80;;;25.10;99.90;;;26.60;54.99;100155.28;6161148;23;20009;-87
2021/07/27 09:22:09;;;;;;;9.40;7.68;;;25.10;99.90;;;26.63;54.87;100160.84;6135503;23;20060;-88
2021/07/27 09:24:37;;;;;;;11.05;7.40;;;25.00;99.90;;;26.40;55.56;100155.78;6134307;23;20013;-89
2021/07/27 09:27:12;;;;;;;13.90;8.15;;;24.80;99.90;;;25.66;56.90;100145.53;6135600;23;20021;-88
2021/07/27 09:29:47;;;;;;;10.98;7.95;;;24.40;99.90;;;25.35;57.97;100147.66;6162890;23;20008;-89
2021/07/27 09:32:20;;;;;;;10.90;7.72;;;24.10;99.90;;;25.39;58.44;100153.22;6162908;23;20487;-88
2021/07/27 09:34:48;;;;;;;8.93;7.53;;;24.10;99.90;;;25.60;57.49;100158.06;6161783;23;20011;-87
2021/07/27 09:37:14;;;;;;;13.55;7.25;;;24.00;99.90;;;26.11;57.06;100156.22;6159726;23;20428;-87
2021/07/27 09:39:40;;;;;;;9.63;7.97;;;24.30;99.90;;;26.51;57.27;100156.09;6135176;23;20009;-87
2021/07/27 09:42:10;;;;;;;9.80;8.07;;;24.80;99.90;;;27.21;53.41;100151.94;6161218;23;20080;-88
2021/07/27 09:44:39;;;;;;;9.93;7.07;;;25.40;99.90;;;26.12;55.25;100154.16;6136885;23;20329;-88
2021/07/27 09:47:06;;;;;;;12.27;7.53;;;25.10;99.90;;;26.13;55.44;100147.19;6160925;23;20069;-91
2021/07/27 09:49:33;;;;;;;10.07;7.45;;;24.90;99.90;;;26.58;53.21;100155.78;6135863;23;20004;-89
2021/07/27 09:52:00;;;;;;;8.85;7.30;;;24.90;99.90;;;26.45;55.57;100157.22;6161645;23;20006;-88
2021/07/27 09:54:27;;;;;;;10.32;7.10;;;24.90;99.90;;;27.51;52.97;100158.69;6161782;23;20084;-89
2021/07/27 09:56:55;;;;;;;9.23;7.30;;;25.50;99.90;;;27.31;51.53;100171.97;6159527;23;20009;-88
2021/07/27 09:59:25;;;;;;;11.73;7.07;;;25.60;99.90;;;27.03;52.68;100171.28;6159129;23;20028;-88
2021/07/27 10:02:06;;;;;;;12.27;7.50;;;25.40;99.90;;;26.94;53.92;100171.31;6134457;23;20057;-89
2021/07/27 10:04:47;;;;;;;9.23;6.90;;;25.40;99.90;;;27.10;52.53;100174.59;6133856;23;20041;-89
2021/07/27 10:07:14;;;;;;;7.50;6.70;;;25.30;99.90;;;26.10;54.19;100168.16;6134409;23;20033;-89
2021/07/27 10:09:40;;;;;;;9.18;7.25;;;25.00;99.90;;;27.14;52.91;100158.03;6115284;23;20033;-88
2021/07/27 10:12:13;;;;;;;12.95;7.00;;;25.40;99.90;;;28.45;49.83;100162.78;6157458;23;20001;-90
2021/07/27 10:14:47;;;;;;;9.98;7.22;;;26.30;99.90;;;28.77;48.18;100161.06;6146210;23;20005;-89
2021/07/27 10:17:14;;;;;;;7.82;6.60;;;27.00;99.90;;;28.51;46.69;100162.91;6137876;23;20064;-90
2021/07/27 10:19:49;;;;;;;8.98;6.20;;;27.00;95.70;;;28.39;48.64;100173.38;6140484;23;20029;-89
2021/07/27 10:22:16;;;;;;;10.43;6.60;;;27.10;97.70;;;28.76;47.31;100174.66;6139925;23;20006;-90
2021/07/27 10:24:49;;;;;;;9.88;6.68;;;27.20;95.40;;;28.96;47.02;100170.28;6165151;23;20029;-88
2021/07/27 10:27:26;;;;;;;10.50;5.78;;;27.20;94.90;;;27.97;47.76;100164.09;6138096;23;20506;-89
2021/07/27 10:30:07;;;;;;;9.55;6.90;;;26.50;93.70;;;26.94;48.91;100171.31;6146905;23;20036;-90
2021/07/27 10:32:33;;;;;;;10.63;6.25;;;25.80;94.50;;;26.04;49.93;100175.81;6139669;23;20012;-88
2021/07/27 10:34:59;;;;;;;9.50;6.60;;;25.00;95.50;;;25.43;52.66;100166.09;6132842;23;20010;-89
2021/07/27 10:37:37;;;;;;;11.35;7.00;;;24.40;99.60;;;25.30;55.14;100173.97;6133299;23;20021;-89
2021/07/27 10:40:04;;;;;;;8.05;6.93;;;24.10;99.90;;;26.17;52.82;100170.72;6133227;23;20076;-89
2021/07/27 10:42:40;;;;;;;9.05;6.85;;;24.50;99.90;;;27.25;51.28;100171.84;6132521;23;20016;-88
2021/07/27 10:45:20;;;;;;;9.52;7.43;;;25.30;99.90;;;27.75;50.46;100167.28;6135589;23;20009;-88